sensor_id;sensor_type;location;lat;lon;timestamp;P1;durP1;ratioP1;P2;durP2;ratioP2
9052;SDS011;4561;47.450;7.516;2024-01-07T00:01:19;3.20;;;3.00;;
9052;SDS011;4561;47.450;7.516;2024-01-07T00:04:42;3.40;;;3.13;;
9052;SDS011;4561;47.450;7.516;2024-01-07T00:08:02;4.07;;;3.67;;
9052;SDS011;4561;47.450;7.516;2024-01-07T00:11:23;16.57;;;3.97;;
9052;SDS011;4561;47.450;7.516;2024-01-07T00:14:43;4.83;;;3.57;;
9052;SDS011;4561;47.450;7.516;2024-01-07T00:18:04;53.37;;;5.23;;
9052;SDS011;4561;47.450;7.516;2024-01-07T00:21:26;16.30;;;3.77;;
9052;SDS011;4561;47.450;7.516;2024-01-07T00:24:47;54.57;;;5.43;;
9052;SDS011;4561;47.450;7.516;2024-01-07T00:28:07;34.47;;;5.00;;
9052;SDS011;4561;47.450;7.516;2024-01-07T00:31:27;4.00;;;3.13;;
9052;SDS011;4561;47.450;7.516;2024-01-07T00:34:48;3.07;;;2.80;;
9052;SDS011;4561;47.450;7.516;2024-01-07T00:38:08;3.07;;;2.77;;
9052;SDS011;4561;47.450;7.516;2024-01-07T00:41:28;132.17;;;6.63;;
9052;SDS011;4561;47.450;7.516;2024-01-07T00:44:50;2.07;;;1.90;;
9052;SDS011;4561;47.450;7.516;2024-01-07T00:48:10;1.70;;;1.60;;
9052;SDS011;4561;47.450;7.516;2024-01-07T00:51:33;2.40;;;2.20;;
9052;SDS011;4561;47.450;7.516;2024-01-07T00:54:53;1.67;;;1.57;;
9052;SDS011;4561;47.450;7.516;2024-01-07T00:58:14;1.77;;;1.67;;
9052;SDS011;4561;47.450;7.516;2024-01-07T01:01:34;1.73;;;1.63;;
9052;SDS011;4561;47.450;7.516;2024-01-07T01:04:54;2.30;;;2.10;;
9052;SDS011;4561;47.450;7.516;2024-01-07T01:08:15;2.37;;;2.17;;
9052;SDS011;4561;47.450;7.516;2024-01-07T01:11:35;2.30;;;2.00;;
9052;SDS011;4561;47.450;7.516;2024-01-07T01:14:56;2.50;;;2.30;;
9052;SDS011;4561;47.450;7.516;2024-01-07T01:18:19;2.57;;;2.40;;
9052;SDS011;4561;47.450;7.516;2024-01-07T01:21:44;2.43;;;2.23;;
9052;SDS011;4561;47.450;7.516;2024-01-07T01:25:04;2.33;;;2.13;;
9052;SDS011;4561;47.450;7.516;2024-01-07T01:28:25;2.60;;;2.40;;
9052;SDS011;4561;47.450;7.516;2024-01-07T01:31:48;2.70;;;2.43;;
9052;SDS011;4561;47.450;7.516;2024-01-07T01:35:08;3.50;;;3.17;;
9052;SDS011;4561;47.450;7.516;2024-01-07T01:38:31;3.93;;;3.63;;
9052;SDS011;4561;47.450;7.516;2024-01-07T01:41:52;3.10;;;2.90;;
9052;SDS011;4561;47.450;7.516;2024-01-07T01:45:13;3.97;;;3.67;;
9052;SDS011;4561;47.450;7.516;2024-01-07T01:48:37;3.37;;;3.17;;
9052;SDS011;4561;47.450;7.516;2024-01-07T01:51:58;3.60;;;3.30;;
9052;SDS011;4561;47.450;7.516;2024-01-07T01:55:18;3.33;;;3.03;;
9052;SDS011;4561;47.450;7.516;2024-01-07T01:58:39;3.17;;;2.90;;
9052;SDS011;4561;47.450;7.516;2024-01-07T02:02:01;2.60;;;2.40;;
9052;SDS011;4561;47.450;7.516;2024-01-07T02:05:21;3.07;;;2.87;;
9052;SDS011;4561;47.450;7.516;2024-01-07T02:08:44;3.27;;;2.20;;
9052;SDS011;4561;47.450;7.516;2024-01-07T02:12:07;1.87;;;1.77;;
9052;SDS011;4561;47.450;7.516;2024-01-07T02:15:31;2.63;;;2.43;;
9052;SDS011;4561;47.450;7.516;2024-01-07T02:18:52;2.57;;;2.37;;
9052;SDS011;4561;47.450;7.516;2024-01-07T02:22:15;2.73;;;2.53;;
9052;SDS011;4561;47.450;7.516;2024-01-07T02:25:38;3.33;;;3.03;;
9052;SDS011;4561;47.450;7.516;2024-01-07T02:28:58;3.03;;;2.83;;
9052;SDS011;4561;47.450;7.516;2024-01-07T02:32:21;3.00;;;2.80;;
9052;SDS011;4561;47.450;7.516;2024-01-07T02:35:41;3.03;;;2.83;;
9052;SDS011;4561;47.450;7.516;2024-01-07T02:39:02;3.57;;;3.07;;
9052;SDS011;4561;47.450;7.516;2024-01-07T02:42:22;3.60;;;3.30;;
9052;SDS011;4561;47.450;7.516;2024-01-07T02:45:43;4.03;;;3.63;;
9052;SDS011;4561;47.450;7.516;2024-01-07T02:49:05;4.03;;;3.73;;
9052;SDS011;4561;47.450;7.516;2024-01-07T02:52:26;4.10;;;3.80;;
9052;SDS011;4561;47.450;7.516;2024-01-07T02:55:46;3.00;;;2.80;;
9052;SDS011;4561;47.450;7.516;2024-01-07T02:59:06;3.23;;;2.93;;
9052;SDS011;4561;47.450;7.516;2024-01-07T03:02:27;2.67;;;2.47;;
9052;SDS011;4561;47.450;7.516;2024-01-07T03:05:47;1.90;;;1.80;;
9052;SDS011;4561;47.450;7.516;2024-01-07T03:09:08;2.00;;;1.90;;
9052;SDS011;4561;47.450;7.516;2024-01-07T03:12:31;1.60;;;1.50;;
9052;SDS011;4561;47.450;7.516;2024-01-07T03:15:55;2.30;;;2.00;;
9052;SDS011;4561;47.450;7.516;2024-01-07T03:19:15;2.40;;;2.20;;
9052;SDS011;4561;47.450;7.516;2024-01-07T03:22:36;2.70;;;2.50;;
9052;SDS011;4561;47.450;7.516;2024-01-07T03:25:57;3.20;;;3.00;;
9052;SDS011;4561;47.450;7.516;2024-01-07T03:29:18;3.27;;;2.97;;
9052;SDS011;4561;47.450;7.516;2024-01-07T03:32:38;2.80;;;2.60;;
9052;SDS011;4561;47.450;7.516;2024-01-07T03:35:59;2.70;;;2.50;;
9052;SDS011;4561;47.450;7.516;2024-01-07T03:39:19;2.57;;;2.37;;
9052;SDS011;4561;47.450;7.516;2024-01-07T03:42:42;2.57;;;2.37;;
9052;SDS011;4561;47.450;7.516;2024-01-07T03:46:02;2.73;;;2.53;;
9052;SDS011;4561;47.450;7.516;2024-01-07T03:49:22;2.30;;;2.10;;
9052;SDS011;4561;47.450;7.516;2024-01-07T03:52:43;2.37;;;2.17;;
9052;SDS011;4561;47.450;7.516;2024-01-07T03:56:03;2.70;;;2.50;;
9052;SDS011;4561;47.450;7.516;2024-01-07T03:59:24;2.80;;;2.60;;
9052;SDS011;4561;47.450;7.516;2024-01-07T04:02:45;2.67;;;2.47;;
9052;SDS011;4561;47.450;7.516;2024-01-07T04:06:08;3.20;;;2.90;;
9052;SDS011;4561;47.450;7.516;2024-01-07T04:09:31;3.70;;;3.40;;
9052;SDS011;4561;47.450;7.516;2024-01-07T04:12:51;4.73;;;4.27;;
9052;SDS011;4561;47.450;7.516;2024-01-07T04:16:18;4.77;;;4.27;;
9052;SDS011;4561;47.450;7.516;2024-01-07T04:19:38;4.37;;;3.80;;
9052;SDS011;4561;47.450;7.516;2024-01-07T04:22:59;3.77;;;3.47;;
9052;SDS011;4561;47.450;7.516;2024-01-07T04:26:19;4.30;;;3.90;;
9052;SDS011;4561;47.450;7.516;2024-01-07T04:29:40;5.90;;;4.97;;
9052;SDS011;4561;47.450;7.516;2024-01-07T04:33:00;5.37;;;4.83;;
9052;SDS011;4561;47.450;7.516;2024-01-07T04:36:20;5.10;;;4.67;;
9052;SDS011;4561;47.450;7.516;2024-01-07T04:39:41;5.60;;;4.97;;
9052;SDS011;4561;47.450;7.516;2024-01-07T04:43:01;5.33;;;4.80;;
9052;SDS011;4561;47.450;7.516;2024-01-07T04:46:22;5.27;;;4.77;;
9052;SDS011;4561;47.450;7.516;2024-01-07T04:49:42;5.23;;;4.60;;
9052;SDS011;4561;47.450;7.516;2024-01-07T04:53:04;3.60;;;3.30;;
9052;SDS011;4561;47.450;7.516;2024-01-07T04:56:27;3.83;;;3.53;;
9052;SDS011;4561;47.450;7.516;2024-01-07T04:59:48;4.27;;;3.63;;
9052;SDS011;4561;47.450;7.516;2024-01-07T05:03:12;3.53;;;3.23;;
9052;SDS011;4561;47.450;7.516;2024-01-07T05:06:33;3.50;;;3.20;;
9052;SDS011;4561;47.450;7.516;2024-01-07T05:09:53;3.00;;;2.70;;
9052;SDS011;4561;47.450;7.516;2024-01-07T05:13:14;2.73;;;2.53;;
9052;SDS011;4561;47.450;7.516;2024-01-07T05:16:34;2.30;;;2.10;;
9052;SDS011;4561;47.450;7.516;2024-01-07T05:19:55;2.50;;;2.30;;
9052;SDS011;4561;47.450;7.516;2024-01-07T05:23:17;3.03;;;2.83;;
9052;SDS011;4561;47.450;7.516;2024-01-07T05:26:38;3.50;;;3.20;;
9052;SDS011;4561;47.450;7.516;2024-01-07T05:29:59;3.10;;;2.90;;
9052;SDS011;4561;47.450;7.516;2024-01-07T05:33:27;2.80;;;2.60;;
9052;SDS011;4561;47.450;7.516;2024-01-07T05:36:48;3.00;;;2.80;;
9052;SDS011;4561;47.450;7.516;2024-01-07T05:40:08;3.10;;;2.80;;
9052;SDS011;4561;47.450;7.516;2024-01-07T05:43:29;3.00;;;2.70;;
9052;SDS011;4561;47.450;7.516;2024-01-07T05:46:49;3.00;;;2.80;;
9052;SDS011;4561;47.450;7.516;2024-01-07T05:50:10;2.93;;;2.73;;
9052;SDS011;4561;47.450;7.516;2024-01-07T05:53:30;3.47;;;3.17;;
9052;SDS011;4561;47.450;7.516;2024-01-07T05:56:53;3.73;;;3.30;;
9052;SDS011;4561;47.450;7.516;2024-01-07T06:00:16;3.23;;;2.93;;
9052;SDS011;4561;47.450;7.516;2024-01-07T06:03:36;4.10;;;3.70;;
9052;SDS011;4561;47.450;7.516;2024-01-07T06:06:57;3.40;;;3.10;;
9052;SDS011;4561;47.450;7.516;2024-01-07T06:10:18;4.03;;;3.57;;
9052;SDS011;4561;47.450;7.516;2024-01-07T06:13:38;4.10;;;3.30;;
9052;SDS011;4561;47.450;7.516;2024-01-07T06:16:59;4.03;;;3.73;;
9052;SDS011;4561;47.450;7.516;2024-01-07T06:20:19;3.73;;;3.43;;
9052;SDS011;4561;47.450;7.516;2024-01-07T06:23:39;3.90;;;3.50;;
9052;SDS011;4561;47.450;7.516;2024-01-07T06:27:00;4.53;;;4.13;;
9052;SDS011;4561;47.450;7.516;2024-01-07T06:30:23;4.03;;;3.63;;
9052;SDS011;4561;47.450;7.516;2024-01-07T06:33:44;6.37;;;4.23;;
9052;SDS011;4561;47.450;7.516;2024-01-07T06:37:05;4.77;;;4.33;;
9052;SDS011;4561;47.450;7.516;2024-01-07T06:40:27;5.20;;;4.70;;
9052;SDS011;4561;47.450;7.516;2024-01-07T06:43:48;9.20;;;5.73;;
9052;SDS011;4561;47.450;7.516;2024-01-07T06:47:09;5.73;;;4.77;;
9052;SDS011;4561;47.450;7.516;2024-01-07T06:50:30;5.37;;;4.87;;
9052;SDS011;4561;47.450;7.516;2024-01-07T06:53:50;6.27;;;5.67;;
9052;SDS011;4561;47.450;7.516;2024-01-07T06:57:11;4.80;;;4.30;;
9052;SDS011;4561;47.450;7.516;2024-01-07T07:00:31;4.30;;;3.90;;
9052;SDS011;4561;47.450;7.516;2024-01-07T07:03:51;4.17;;;3.77;;
9052;SDS011;4561;47.450;7.516;2024-01-07T07:07:12;4.77;;;4.37;;
9052;SDS011;4561;47.450;7.516;2024-01-07T07:10:32;6.03;;;4.47;;
9052;SDS011;4561;47.450;7.516;2024-01-07T07:13:52;4.10;;;3.70;;
9052;SDS011;4561;47.450;7.516;2024-01-07T07:17:13;3.70;;;3.40;;
9052;SDS011;4561;47.450;7.516;2024-01-07T07:20:34;4.20;;;3.80;;
9052;SDS011;4561;47.450;7.516;2024-01-07T07:23:54;4.93;;;4.27;;
9052;SDS011;4561;47.450;7.516;2024-01-07T07:27:14;4.17;;;3.77;;
9052;SDS011;4561;47.450;7.516;2024-01-07T07:30:35;4.20;;;3.80;;
9052;SDS011;4561;47.450;7.516;2024-01-07T07:33:55;3.73;;;3.33;;
9052;SDS011;4561;47.450;7.516;2024-01-07T07:37:18;4.33;;;3.90;;
9052;SDS011;4561;47.450;7.516;2024-01-07T07:40:39;4.10;;;3.70;;
9052;SDS011;4561;47.450;7.516;2024-01-07T07:43:59;5.03;;;3.93;;
9052;SDS011;4561;47.450;7.516;2024-01-07T07:47:19;3.70;;;3.37;;
9052;SDS011;4561;47.450;7.516;2024-01-07T07:50:40;4.30;;;3.90;;
9052;SDS011;4561;47.450;7.516;2024-01-07T07:54:01;4.07;;;3.67;;
9052;SDS011;4561;47.450;7.516;2024-01-07T07:57:21;4.33;;;3.93;;
9052;SDS011;4561;47.450;7.516;2024-01-07T08:00:42;3.00;;;2.80;;
9052;SDS011;4561;47.450;7.516;2024-01-07T08:04:02;3.50;;;3.20;;
9052;SDS011;4561;47.450;7.516;2024-01-07T08:07:25;3.30;;;2.87;;
9052;SDS011;4561;47.450;7.516;2024-01-07T08:10:45;2.97;;;2.77;;
9052;SDS011;4561;47.450;7.516;2024-01-07T08:14:05;3.03;;;2.83;;
9052;SDS011;4561;47.450;7.516;2024-01-07T08:17:26;4.23;;;3.83;;
9052;SDS011;4561;47.450;7.516;2024-01-07T08:20:48;3.30;;;3.00;;
9052;SDS011;4561;47.450;7.516;2024-01-07T08:24:08;4.13;;;3.77;;
9052;SDS011;4561;47.450;7.516;2024-01-07T08:27:31;8.87;;;4.87;;
9052;SDS011;4561;47.450;7.516;2024-01-07T08:30:52;5.23;;;4.57;;
9052;SDS011;4561;47.450;7.516;2024-01-07T08:34:13;4.63;;;4.00;;
9052;SDS011;4561;47.450;7.516;2024-01-07T08:37:35;5.07;;;4.57;;
9052;SDS011;4561;47.450;7.516;2024-01-07T08:40:55;4.53;;;4.03;;
9052;SDS011;4561;47.450;7.516;2024-01-07T08:44:15;5.07;;;4.57;;
9052;SDS011;4561;47.450;7.516;2024-01-07T08:47:36;5.97;;;5.37;;
9052;SDS011;4561;47.450;7.516;2024-01-07T08:50:57;5.80;;;5.13;;
9052;SDS011;4561;47.450;7.516;2024-01-07T08:54:17;14.37;;;5.37;;
9052;SDS011;4561;47.450;7.516;2024-01-07T08:57:38;7.83;;;6.87;;
9052;SDS011;4561;47.450;7.516;2024-01-07T09:00:58;8.07;;;6.80;;
9052;SDS011;4561;47.450;7.516;2024-01-07T09:04:19;15.27;;;7.07;;
9052;SDS011;4561;47.450;7.516;2024-01-07T09:07:39;7.30;;;5.80;;
9052;SDS011;4561;47.450;7.516;2024-01-07T09:10:59;6.00;;;5.40;;
9052;SDS011;4561;47.450;7.516;2024-01-07T09:14:21;6.80;;;5.73;;
9052;SDS011;4561;47.450;7.516;2024-01-07T09:17:42;6.40;;;5.80;;
9052;SDS011;4561;47.450;7.516;2024-01-07T09:21:02;7.13;;;5.63;;
9052;SDS011;4561;47.450;7.516;2024-01-07T09:24:25;5.73;;;4.97;;
9052;SDS011;4561;47.450;7.516;2024-01-07T09:27:45;5.70;;;4.93;;
9052;SDS011;4561;47.450;7.516;2024-01-07T09:31:06;6.67;;;5.93;;
9052;SDS011;4561;47.450;7.516;2024-01-07T09:34:27;5.73;;;3.97;;
9052;SDS011;4561;47.450;7.516;2024-01-07T09:37:47;7.00;;;4.63;;
9052;SDS011;4561;47.450;7.516;2024-01-07T09:41:07;5.07;;;4.00;;
9052;SDS011;4561;47.450;7.516;2024-01-07T09:44:28;4.33;;;3.90;;
9052;SDS011;4561;47.450;7.516;2024-01-07T09:47:48;4.77;;;4.37;;
9052;SDS011;4561;47.450;7.516;2024-01-07T09:51:09;5.97;;;5.37;;
9052;SDS011;4561;47.450;7.516;2024-01-07T09:54:31;5.57;;;5.07;;
9052;SDS011;4561;47.450;7.516;2024-01-07T09:57:52;4.47;;;4.07;;
9052;SDS011;4561;47.450;7.516;2024-01-07T10:01:18;5.10;;;4.50;;
9052;SDS011;4561;47.450;7.516;2024-01-07T10:04:40;6.50;;;5.20;;
9052;SDS011;4561;47.450;7.516;2024-01-07T10:08:00;6.53;;;5.10;;
9052;SDS011;4561;47.450;7.516;2024-01-07T10:11:22;5.07;;;4.57;;
9052;SDS011;4561;47.450;7.516;2024-01-07T10:14:42;5.70;;;5.10;;
9052;SDS011;4561;47.450;7.516;2024-01-07T10:18:06;5.10;;;4.60;;
9052;SDS011;4561;47.450;7.516;2024-01-07T10:21:27;5.07;;;4.57;;
9052;SDS011;4561;47.450;7.516;2024-01-07T10:24:47;5.37;;;4.87;;
9052;SDS011;4561;47.450;7.516;2024-01-07T10:28:09;4.53;;;4.10;;
9052;SDS011;4561;47.450;7.516;2024-01-07T10:31:33;5.47;;;4.80;;
9052;SDS011;4561;47.450;7.516;2024-01-07T10:34:55;5.63;;;4.87;;
9052;SDS011;4561;47.450;7.516;2024-01-07T10:38:21;5.33;;;4.80;;
9052;SDS011;4561;47.450;7.516;2024-01-07T10:41:46;4.87;;;4.37;;
9052;SDS011;4561;47.450;7.516;2024-01-07T10:45:07;5.37;;;4.87;;
9052;SDS011;4561;47.450;7.516;2024-01-07T10:48:31;5.10;;;4.60;;
9052;SDS011;4561;47.450;7.516;2024-01-07T10:55:25;4.40;;;4.00;;
9052;SDS011;4561;47.450;7.516;2024-01-07T10:58:46;4.00;;;3.60;;
9052;SDS011;4561;47.450;7.516;2024-01-07T11:02:07;5.27;;;4.10;;
9052;SDS011;4561;47.450;7.516;2024-01-07T11:05:31;3.67;;;3.33;;
9052;SDS011;4561;47.450;7.516;2024-01-07T11:09:02;3.37;;;3.07;;
9052;SDS011;4561;47.450;7.516;2024-01-07T11:12:26;3.77;;;3.37;;
9052;SDS011;4561;47.450;7.516;2024-01-07T11:19:07;4.50;;;3.97;;
9052;SDS011;4561;47.450;7.516;2024-01-07T11:22:27;4.60;;;4.20;;
9052;SDS011;4561;47.450;7.516;2024-01-07T11:25:48;7.03;;;5.87;;
9052;SDS011;4561;47.450;7.516;2024-01-07T11:29:08;8.40;;;7.43;;
9052;SDS011;4561;47.450;7.516;2024-01-07T11:32:31;10.30;;;8.27;;
9052;SDS011;4561;47.450;7.516;2024-01-07T11:35:56;9.33;;;7.33;;
9052;SDS011;4561;47.450;7.516;2024-01-07T11:39:18;8.70;;;7.13;;
9052;SDS011;4561;47.450;7.516;2024-01-07T11:42:39;6.70;;;5.77;;
9052;SDS011;4561;47.450;7.516;2024-01-07T11:46:01;13.10;;;11.10;;
9052;SDS011;4561;47.450;7.516;2024-01-07T11:49:24;9.73;;;7.90;;
9052;SDS011;4561;47.450;7.516;2024-01-07T11:52:45;103.67;;;20.03;;
9052;SDS011;4561;47.450;7.516;2024-01-07T11:56:05;9.57;;;7.60;;
9052;SDS011;4561;47.450;7.516;2024-01-07T11:59:31;32.13;;;10.07;;
9052;SDS011;4561;47.450;7.516;2024-01-07T12:02:53;114.37;;;14.00;;
9052;SDS011;4561;47.450;7.516;2024-01-07T12:06:13;90.03;;;14.30;;
9052;SDS011;4561;47.450;7.516;2024-01-07T12:09:34;30.17;;;13.23;;
9052;SDS011;4561;47.450;7.516;2024-01-07T12:12:54;354.73;;;22.47;;
9052;SDS011;4561;47.450;7.516;2024-01-07T12:16:17;45.00;;;11.67;;
9052;SDS011;4561;47.450;7.516;2024-01-07T12:19:39;198.70;;;20.20;;
9052;SDS011;4561;47.450;7.516;2024-01-07T12:23:09;209.97;;;21.23;;
9052;SDS011;4561;47.450;7.516;2024-01-07T12:26:30;89.33;;;16.10;;
9052;SDS011;4561;47.450;7.516;2024-01-07T12:29:56;171.73;;;21.53;;
9052;SDS011;4561;47.450;7.516;2024-01-07T12:33:17;171.30;;;19.00;;
9052;SDS011;4561;47.450;7.516;2024-01-07T12:36:39;184.83;;;23.90;;
9052;SDS011;4561;47.450;7.516;2024-01-07T12:40:00;217.73;;;20.90;;
9052;SDS011;4561;47.450;7.516;2024-01-07T12:43:20;184.20;;;19.63;;
9052;SDS011;4561;47.450;7.516;2024-01-07T12:46:41;178.40;;;18.73;;
9052;SDS011;4561;47.450;7.516;2024-01-07T12:50:02;167.20;;;19.00;;
9052;SDS011;4561;47.450;7.516;2024-01-07T12:53:22;20.17;;;13.23;;
9052;SDS011;4561;47.450;7.516;2024-01-07T12:56:43;38.03;;;12.57;;
9052;SDS011;4561;47.450;7.516;2024-01-07T13:00:06;26.67;;;14.30;;
9052;SDS011;4561;47.450;7.516;2024-01-07T13:03:27;18.07;;;12.00;;
9052;SDS011;4561;47.450;7.516;2024-01-07T13:06:47;32.27;;;13.43;;
9052;SDS011;4561;47.450;7.516;2024-01-07T13:10:10;136.30;;;16.33;;
9052;SDS011;4561;47.450;7.516;2024-01-07T13:13:33;22.97;;;11.43;;
9052;SDS011;4561;47.450;7.516;2024-01-07T13:16:53;17.57;;;10.30;;
9052;SDS011;4561;47.450;7.516;2024-01-07T13:20:14;14.33;;;10.53;;
9052;SDS011;4561;47.450;7.516;2024-01-07T13:23:34;13.17;;;9.80;;
9052;SDS011;4561;47.450;7.516;2024-01-07T13:26:55;11.30;;;9.50;;
9052;SDS011;4561;47.450;7.516;2024-01-07T13:30:15;16.63;;;11.43;;
9052;SDS011;4561;47.450;7.516;2024-01-07T13:33:36;14.03;;;12.47;;
9052;SDS011;4561;47.450;7.516;2024-01-07T13:36:56;13.33;;;11.23;;
9052;SDS011;4561;47.450;7.516;2024-01-07T13:40:17;14.70;;;10.57;;
9052;SDS011;4561;47.450;7.516;2024-01-07T13:43:40;15.17;;;11.07;;
9052;SDS011;4561;47.450;7.516;2024-01-07T13:47:00;17.83;;;13.40;;
9052;SDS011;4561;47.450;7.516;2024-01-07T13:50:25;15.03;;;11.30;;
9052;SDS011;4561;47.450;7.516;2024-01-07T13:53:45;14.00;;;10.60;;
9052;SDS011;4561;47.450;7.516;2024-01-07T13:57:06;12.23;;;10.53;;
9052;SDS011;4561;47.450;7.516;2024-01-07T14:00:27;16.23;;;12.23;;
9052;SDS011;4561;47.450;7.516;2024-01-07T14:03:50;14.57;;;11.53;;
9052;SDS011;4561;47.450;7.516;2024-01-07T14:07:11;14.23;;;12.53;;
9052;SDS011;4561;47.450;7.516;2024-01-07T14:10:32;15.70;;;13.33;;
9052;SDS011;4561;47.450;7.516;2024-01-07T14:13:52;13.77;;;12.13;;
9052;SDS011;4561;47.450;7.516;2024-01-07T14:17:12;15.83;;;13.57;;
9052;SDS011;4561;47.450;7.516;2024-01-07T14:20:33;14.90;;;13.17;;
9052;SDS011;4561;47.450;7.516;2024-01-07T14:23:53;15.17;;;12.27;;
9052;SDS011;4561;47.450;7.516;2024-01-07T14:27:16;19.70;;;14.13;;
9052;SDS011;4561;47.450;7.516;2024-01-07T14:30:37;15.67;;;13.83;;
9052;SDS011;4561;47.450;7.516;2024-01-07T14:33:58;15.30;;;13.57;;
9052;SDS011;4561;47.450;7.516;2024-01-07T14:37:18;19.20;;;14.53;;
9052;SDS011;4561;47.450;7.516;2024-01-07T14:40:41;17.50;;;15.17;;
9052;SDS011;4561;47.450;7.516;2024-01-07T14:44:06;14.87;;;13.20;;
9052;SDS011;4561;47.450;7.516;2024-01-07T14:47:26;18.57;;;15.87;;
9052;SDS011;4561;47.450;7.516;2024-01-07T14:50:49;21.07;;;18.13;;
9052;SDS011;4561;47.450;7.516;2024-01-07T14:54:11;21.60;;;15.63;;
9052;SDS011;4561;47.450;7.516;2024-01-07T14:57:31;18.00;;;15.73;;
9052;SDS011;4561;47.450;7.516;2024-01-07T15:00:52;18.43;;;15.57;;
9052;SDS011;4561;47.450;7.516;2024-01-07T15:04:13;20.90;;;16.77;;
9052;SDS011;4561;47.450;7.516;2024-01-07T15:07:33;20.30;;;17.37;;
9052;SDS011;4561;47.450;7.516;2024-01-07T15:10:53;20.27;;;15.50;;
9052;SDS011;4561;47.450;7.516;2024-01-07T15:14:14;17.40;;;14.90;;
9052;SDS011;4561;47.450;7.516;2024-01-07T15:17:35;21.80;;;17.47;;
9052;SDS011;4561;47.450;7.516;2024-01-07T15:20:57;21.57;;;16.53;;
9052;SDS011;4561;47.450;7.516;2024-01-07T15:24:18;17.70;;;15.80;;
9052;SDS011;4561;47.450;7.516;2024-01-07T15:27:39;18.27;;;15.40;;
9052;SDS011;4561;47.450;7.516;2024-01-07T15:30:59;16.27;;;14.57;;
9052;SDS011;4561;47.450;7.516;2024-01-07T15:34:23;17.73;;;15.17;;
9052;SDS011;4561;47.450;7.516;2024-01-07T15:37:43;17.20;;;14.07;;
9052;SDS011;4561;47.450;7.516;2024-01-07T15:41:04;17.70;;;14.90;;
9052;SDS011;4561;47.450;7.516;2024-01-07T15:44:27;22.10;;;18.73;;
9052;SDS011;4561;47.450;7.516;2024-01-07T15:47:47;15.93;;;14.20;;
9052;SDS011;4561;47.450;7.516;2024-01-07T15:51:08;17.60;;;14.20;;
9052;SDS011;4561;47.450;7.516;2024-01-07T15:54:28;15.20;;;13.37;;
9052;SDS011;4561;47.450;7.516;2024-01-07T15:57:49;15.27;;;13.67;;
9052;SDS011;4561;47.450;7.516;2024-01-07T16:01:12;17.47;;;14.03;;
9052;SDS011;4561;47.450;7.516;2024-01-07T16:04:32;14.00;;;12.30;;
9052;SDS011;4561;47.450;7.516;2024-01-07T16:07:58;12.33;;;11.07;;
9052;SDS011;4561;47.450;7.516;2024-01-07T16:11:19;10.03;;;9.03;;
9052;SDS011;4561;47.450;7.516;2024-01-07T16:14:39;10.23;;;9.23;;
9052;SDS011;4561;47.450;7.516;2024-01-07T16:18:02;9.27;;;8.37;;
9052;SDS011;4561;47.450;7.516;2024-01-07T16:21:23;9.60;;;8.70;;
9052;SDS011;4561;47.450;7.516;2024-01-07T16:24:44;9.30;;;8.40;;
9052;SDS011;4561;47.450;7.516;2024-01-07T16:28:04;9.93;;;8.70;;
9052;SDS011;4561;47.450;7.516;2024-01-07T16:31:27;9.00;;;8.10;;
9052;SDS011;4561;47.450;7.516;2024-01-07T16:34:48;9.23;;;8.33;;
9052;SDS011;4561;47.450;7.516;2024-01-07T16:38:08;9.53;;;8.63;;
9052;SDS011;4561;47.450;7.516;2024-01-07T16:41:29;9.43;;;8.53;;
9052;SDS011;4561;47.450;7.516;2024-01-07T16:44:49;9.07;;;8.27;;
9052;SDS011;4561;47.450;7.516;2024-01-07T16:48:10;10.63;;;9.57;;
9052;SDS011;4561;47.450;7.516;2024-01-07T16:51:31;10.17;;;9.10;;
9052;SDS011;4561;47.450;7.516;2024-01-07T16:54:51;10.27;;;8.83;;
9052;SDS011;4561;47.450;7.516;2024-01-07T16:58:12;10.63;;;9.63;;
9052;SDS011;4561;47.450;7.516;2024-01-07T17:01:33;11.10;;;10.07;;
9052;SDS011;4561;47.450;7.516;2024-01-07T17:04:56;11.13;;;9.90;;
9052;SDS011;4561;47.450;7.516;2024-01-07T17:08:21;9.47;;;8.57;;
9052;SDS011;4561;47.450;7.516;2024-01-07T17:11:41;9.90;;;9.00;;
9052;SDS011;4561;47.450;7.516;2024-01-07T17:15:02;10.70;;;9.60;;
9052;SDS011;4561;47.450;7.516;2024-01-07T17:18:22;10.10;;;9.10;;
9052;SDS011;4561;47.450;7.516;2024-01-07T17:21:45;10.53;;;9.53;;
9052;SDS011;4561;47.450;7.516;2024-01-07T17:25:06;11.20;;;9.20;;
9052;SDS011;4561;47.450;7.516;2024-01-07T17:28:27;9.17;;;7.87;;
9052;SDS011;4561;47.450;7.516;2024-01-07T17:31:47;7.23;;;6.53;;
9052;SDS011;4561;47.450;7.516;2024-01-07T17:35:08;6.80;;;6.10;;
9052;SDS011;4561;47.450;7.516;2024-01-07T17:38:31;6.83;;;6.23;;
9052;SDS011;4561;47.450;7.516;2024-01-07T17:41:51;5.80;;;5.30;;
9052;SDS011;4561;47.450;7.516;2024-01-07T17:45:11;4.67;;;4.30;;
9052;SDS011;4561;47.450;7.516;2024-01-07T17:48:32;5.97;;;5.47;;
9052;SDS011;4561;47.450;7.516;2024-01-07T17:51:52;6.53;;;5.93;;
9052;SDS011;4561;47.450;7.516;2024-01-07T17:55:12;6.57;;;5.97;;
9052;SDS011;4561;47.450;7.516;2024-01-07T17:58:37;5.77;;;5.27;;
9052;SDS011;4561;47.450;7.516;2024-01-07T18:01:58;6.07;;;5.43;;
9052;SDS011;4561;47.450;7.516;2024-01-07T18:05:19;4.60;;;4.20;;
9052;SDS011;4561;47.450;7.516;2024-01-07T18:08:39;4.33;;;3.93;;
9052;SDS011;4561;47.450;7.516;2024-01-07T18:11:59;4.60;;;4.20;;
9052;SDS011;4561;47.450;7.516;2024-01-07T18:15:23;4.83;;;4.43;;
9052;SDS011;4561;47.450;7.516;2024-01-07T18:18:43;4.40;;;4.00;;
9052;SDS011;4561;47.450;7.516;2024-01-07T18:22:06;4.93;;;4.53;;
9052;SDS011;4561;47.450;7.516;2024-01-07T18:25:27;4.80;;;4.33;;
9052;SDS011;4561;47.450;7.516;2024-01-07T18:28:47;4.90;;;4.40;;
9052;SDS011;4561;47.450;7.516;2024-01-07T18:32:07;4.20;;;3.80;;
9052;SDS011;4561;47.450;7.516;2024-01-07T18:35:29;5.53;;;5.00;;
9052;SDS011;4561;47.450;7.516;2024-01-07T18:38:50;4.87;;;4.37;;
9052;SDS011;4561;47.450;7.516;2024-01-07T18:42:10;5.07;;;4.57;;
9052;SDS011;4561;47.450;7.516;2024-01-07T18:45:30;6.50;;;4.87;;
9052;SDS011;4561;47.450;7.516;2024-01-07T18:48:51;4.57;;;4.17;;
9052;SDS011;4561;47.450;7.516;2024-01-07T18:52:11;5.20;;;4.70;;
9052;SDS011;4561;47.450;7.516;2024-01-07T18:55:34;5.43;;;4.97;;
9052;SDS011;4561;47.450;7.516;2024-01-07T18:58:56;6.03;;;5.50;;
9052;SDS011;4561;47.450;7.516;2024-01-07T19:02:16;6.07;;;5.40;;
9052;SDS011;4561;47.450;7.516;2024-01-07T19:05:37;5.20;;;4.70;;
9052;SDS011;4561;47.450;7.516;2024-01-07T19:08:57;4.00;;;3.70;;
9052;SDS011;4561;47.450;7.516;2024-01-07T19:12:18;5.63;;;5.07;;
9052;SDS011;4561;47.450;7.516;2024-01-07T19:15:38;4.80;;;4.30;;
9052;SDS011;4561;47.450;7.516;2024-01-07T19:19:00;4.70;;;4.30;;
9052;SDS011;4561;47.450;7.516;2024-01-07T19:22:20;4.57;;;3.97;;
9052;SDS011;4561;47.450;7.516;2024-01-07T19:25:41;4.30;;;3.90;;
9052;SDS011;4561;47.450;7.516;2024-01-07T19:29:01;4.17;;;3.77;;
9052;SDS011;4561;47.450;7.516;2024-01-07T19:32:22;4.43;;;4.03;;
9052;SDS011;4561;47.450;7.516;2024-01-07T19:35:42;4.20;;;3.80;;
9052;SDS011;4561;47.450;7.516;2024-01-07T19:39:05;4.27;;;3.87;;
9052;SDS011;4561;47.450;7.516;2024-01-07T19:42:25;3.70;;;3.40;;
9052;SDS011;4561;47.450;7.516;2024-01-07T19:45:48;3.37;;;3.07;;
9052;SDS011;4561;47.450;7.516;2024-01-07T19:49:08;3.10;;;2.90;;
9052;SDS011;4561;47.450;7.516;2024-01-07T19:52:29;3.40;;;3.10;;
9052;SDS011;4561;47.450;7.516;2024-01-07T19:55:52;3.33;;;3.03;;
9052;SDS011;4561;47.450;7.516;2024-01-07T19:59:12;3.50;;;3.20;;
9052;SDS011;4561;47.450;7.516;2024-01-07T20:02:32;3.57;;;3.27;;
9052;SDS011;4561;47.450;7.516;2024-01-07T20:05:53;5.00;;;4.23;;
9052;SDS011;4561;47.450;7.516;2024-01-07T20:09:13;4.27;;;3.90;;
9052;SDS011;4561;47.450;7.516;2024-01-07T20:12:34;3.63;;;3.33;;
9052;SDS011;4561;47.450;7.516;2024-01-07T20:15:54;5.00;;;4.60;;
9052;SDS011;4561;47.450;7.516;2024-01-07T20:19:18;4.43;;;4.03;;
9052;SDS011;4561;47.450;7.516;2024-01-07T20:22:41;4.90;;;4.50;;
9052;SDS011;4561;47.450;7.516;2024-01-07T20:26:01;5.73;;;5.23;;
9052;SDS011;4561;47.450;7.516;2024-01-07T20:29:21;5.40;;;4.90;;
9052;SDS011;4561;47.450;7.516;2024-01-07T20:32:44;6.23;;;5.67;;
9052;SDS011;4561;47.450;7.516;2024-01-07T20:36:05;6.03;;;5.53;;
9052;SDS011;4561;47.450;7.516;2024-01-07T20:39:28;7.40;;;6.70;;
9052;SDS011;4561;47.450;7.516;2024-01-07T20:42:48;6.60;;;5.93;;
9052;SDS011;4561;47.450;7.516;2024-01-07T20:46:09;6.60;;;6.00;;